createdAt,value
2018-12-06T00:02:08.829Z,45.80
2018-12-06T00:04:46.391Z,45.30
2018-12-06T00:07:23.532Z,45.10
2018-12-06T00:10:02.837Z,45.40
2018-12-06T00:12:41.334Z,45.20
2018-12-06T00:15:30.164Z,44.90
2018-12-06T00:18:09.192Z,45.10
2018-12-06T00:20:46.233Z,44.50
2018-12-06T00:23:24.817Z,45.20
2018-12-06T00:26:02.604Z,45.60
2018-12-06T00:28:39.738Z,44.90
2018-12-06T00:31:15.791Z,46.10
2018-12-06T00:33:54.649Z,45.10
2018-12-06T00:36:31.700Z,44.90
2018-12-06T00:39:08.924Z,44.50
2018-12-06T00:41:46.576Z,45.10
2018-12-06T00:44:23.965Z,45.20
2018-12-06T00:47:04.963Z,44.70
2018-12-06T00:49:43.689Z,45.00
2018-12-06T00:52:20.049Z,45.40
2018-12-06T00:54:56.561Z,46.40
2018-12-06T00:57:33.468Z,46.00
2018-12-06T01:00:11.384Z,45.50
2018-12-06T01:02:47.704Z,45.10
2018-12-06T01:05:24.932Z,44.70
2018-12-06T01:08:02.623Z,44.90
2018-12-06T01:10:38.600Z,45.70
2018-12-06T01:13:15.195Z,44.80
2018-12-06T01:15:51.810Z,43.90
2018-12-06T01:18:27.262Z,43.90
2018-12-06T01:21:03.740Z,46.20
2018-12-06T01:23:41.283Z,46.00
2018-12-06T01:26:18.721Z,45.50
2018-12-06T01:28:56.882Z,47.60
2018-12-06T01:31:39.070Z,45.00
2018-12-06T01:34:15.931Z,44.50
2018-12-06T01:36:53.027Z,43.10
2018-12-06T01:39:32.327Z,43.00
2018-12-06T01:42:11.239Z,42.60
2018-12-06T01:44:46.692Z,45.40
2018-12-06T01:47:22.846Z,43.80
2018-12-06T01:50:00.017Z,42.90
2018-12-06T01:52:38.721Z,44.30
2018-12-06T01:55:15.614Z,42.80
2018-12-06T01:57:51.656Z,44.00
2018-12-06T02:00:28.577Z,42.80
2018-12-06T02:03:06.039Z,42.80
2018-12-06T02:05:41.313Z,43.20
2018-12-06T02:08:21.356Z,43.70
2018-12-06T02:10:58.759Z,44.10
2018-12-06T02:16:16.968Z,45.10
2018-12-06T02:21:42.441Z,46.50
2018-12-06T02:24:21.629Z,46.50
2018-12-06T02:27:03.417Z,46.20
2018-12-06T02:29:45.888Z,45.10
2018-12-06T02:32:24.400Z,45.10
2018-12-06T02:35:05.808Z,44.10
2018-12-06T02:37:42.805Z,45.00
2018-12-06T02:40:25.480Z,43.40
2018-12-06T02:43:05.812Z,43.60
2018-12-06T02:45:43.327Z,42.30
2018-12-06T02:48:20.602Z,42.20
2018-12-06T02:50:59.454Z,44.20
2018-12-06T02:56:23.550Z,45.50
2018-12-06T02:59:02.240Z,46.40
2018-12-06T03:01:39.746Z,43.00
2018-12-06T03:04:22.569Z,44.20
2018-12-06T03:06:59.279Z,44.00
2018-12-06T03:09:41.137Z,44.00
2018-12-06T03:12:29.861Z,44.20
2018-12-06T03:15:07.709Z,43.30
2018-12-06T03:17:49.430Z,41.60
2018-12-06T03:20:27.642Z,44.00
2018-12-06T03:23:05.121Z,41.70
2018-12-06T03:25:42.988Z,43.90
2018-12-06T03:28:20.450Z,44.00
2018-12-06T03:30:56.997Z,44.10
2018-12-06T03:33:34.586Z,42.80
2018-12-06T03:36:12.208Z,42.00
2018-12-06T03:38:49.389Z,43.10
2018-12-06T03:41:28.407Z,44.20
2018-12-06T03:44:07.081Z,42.40
2018-12-06T03:46:45.773Z,42.40
2018-12-06T03:49:25.607Z,41.20
2018-12-06T03:52:06.885Z,41.20
2018-12-06T03:54:45.022Z,43.70
2018-12-06T03:57:25.713Z,44.20
2018-12-06T04:00:06.097Z,43.00
2018-12-06T04:02:44.082Z,44.00
2018-12-06T04:05:20.710Z,42.80
2018-12-06T04:10:46.651Z,42.90
2018-12-06T04:13:29.123Z,41.80
2018-12-06T04:16:07.746Z,42.50
2018-12-06T04:18:48.073Z,43.90
2018-12-06T04:21:28.374Z,44.10
2018-12-06T04:24:06.857Z,45.00
2018-12-06T04:26:47.453Z,45.40
2018-12-06T04:29:27.988Z,43.60
2018-12-06T04:32:07.405Z,42.70
2018-12-06T04:34:46.317Z,43.50
2018-12-06T04:37:25.239Z,44.70
2018-12-06T04:40:04.076Z,45.50
2018-12-06T04:42:48.062Z,44.60
2018-12-06T04:45:28.000Z,45.10
2018-12-06T04:48:21.510Z,45.70
2018-12-06T04:50:56.608Z,46.00
2018-12-06T04:53:34.725Z,46.30
2018-12-06T04:56:12.184Z,44.40
2018-12-06T04:58:51.869Z,46.50
2018-12-06T05:01:37.332Z,44.20
2018-12-06T05:15:27.860Z,42.50
2018-12-06T05:21:35.739Z,44.40
2018-12-06T05:27:20.072Z,44.30
2018-12-06T05:30:00.953Z,43.60
2018-12-06T05:32:46.693Z,42.30
2018-12-06T05:35:26.764Z,42.90
2018-12-06T05:38:10.012Z,44.60
2018-12-06T05:40:53.710Z,44.10
2018-12-06T05:43:42.104Z,43.70
2018-12-06T05:46:26.936Z,43.90
2018-12-06T05:49:07.008Z,44.10
2018-12-06T05:54:56.907Z,42.20
2018-12-06T05:57:43.026Z,43.10
2018-12-06T06:00:23.993Z,43.80
2018-12-06T06:03:02.335Z,43.80
2018-12-06T06:05:44.190Z,45.10
2018-12-06T06:11:23.429Z,43.10
2018-12-06T06:14:00.494Z,42.60
2018-12-06T06:16:39.104Z,42.00
2018-12-06T06:19:20.650Z,42.20
2018-12-06T06:28:01.252Z,42.60
2018-12-06T06:30:49.923Z,43.70
2018-12-06T06:36:22.170Z,42.20
2018-12-06T06:39:10.365Z,45.40
2018-12-06T06:41:57.067Z,45.00
2018-12-06T06:44:37.915Z,43.50
2018-12-06T06:47:32.995Z,43.00
2018-12-06T06:55:57.204Z,44.00
2018-12-06T06:58:46.313Z,42.80
2018-12-06T07:04:25.849Z,45.10
2018-12-06T07:10:03.334Z,43.50
2018-12-06T07:15:47.754Z,43.80
2018-12-06T07:18:33.105Z,43.30
2018-12-06T07:21:17.238Z,43.40
2018-12-06T07:24:00.023Z,44.70
2018-12-06T07:26:45.692Z,43.80
2018-12-06T07:29:27.297Z,43.90
2018-12-06T07:32:09.998Z,44.80
2018-12-06T07:34:55.578Z,45.50
2018-12-06T07:37:35.383Z,45.50
2018-12-06T07:40:16.181Z,44.80
2018-12-06T07:42:57.108Z,44.00
2018-12-06T07:45:35.609Z,44.60
2018-12-06T07:48:20.177Z,44.40
2018-12-06T07:51:01.967Z,44.40
2018-12-06T07:53:45.875Z,45.60
2018-12-06T07:56:23.428Z,45.00
2018-12-06T08:01:49.094Z,44.50
2018-12-06T08:04:29.200Z,46.20
2018-12-06T08:07:14.564Z,47.80
2018-12-06T08:09:51.706Z,46.00
2018-12-06T08:13:56.064Z,46.20
2018-12-06T08:16:32.923Z,47.10
2018-12-06T08:19:09.597Z,47.00
2018-12-06T08:21:45.810Z,47.10
2018-12-06T08:24:22.925Z,45.80
2018-12-06T08:27:01.157Z,45.50
2018-12-06T08:29:42.731Z,47.00
2018-12-06T08:32:24.033Z,47.30
2018-12-06T08:35:05.756Z,46.70
2018-12-06T08:37:46.364Z,45.90
2018-12-06T08:40:24.200Z,46.20
2018-12-06T08:43:03.640Z,45.90
2018-12-06T08:45:42.501Z,46.80
2018-12-06T08:48:22.483Z,46.50
2018-12-06T08:53:43.703Z,46.40
2018-12-06T08:59:04.056Z,46.20
2018-12-06T09:01:42.192Z,45.80
2018-12-06T09:04:20.098Z,45.30
2018-12-06T09:06:58.216Z,45.60
2018-12-06T09:09:36.038Z,46.30
2018-12-06T09:12:13.138Z,46.90
2018-12-06T09:14:52.133Z,46.90
2018-12-06T09:17:30.690Z,46.70
2018-12-06T09:20:09.930Z,46.00
2018-12-06T09:22:47.975Z,46.20
2018-12-06T09:25:30.770Z,47.00
2018-12-06T09:28:12.548Z,46.20
2018-12-06T09:32:17.534Z,45.40
2018-12-06T09:34:54.525Z,45.50
2018-12-06T09:37:31.058Z,46.90
2018-12-06T09:40:09.845Z,47.50
2018-12-06T09:42:47.872Z,47.90
2018-12-06T09:45:26.786Z,48.00
2018-12-06T09:48:04.073Z,47.40
2018-12-06T09:50:41.421Z,49.30
2018-12-06T09:53:22.959Z,50.20
2018-12-06T09:56:01.760Z,50.90
2018-12-06T09:58:39.883Z,50.50
2018-12-06T10:01:18.026Z,49.10
2018-12-06T10:04:03.795Z,47.40
2018-12-06T10:06:41.391Z,47.00
2018-12-06T10:09:19.002Z,48.00
2018-12-06T10:11:55.852Z,47.60
2018-12-06T10:14:34.190Z,46.00
2018-12-06T10:17:10.822Z,46.40
2018-12-06T10:19:48.658Z,46.50
2018-12-06T10:22:27.956Z,46.50
2018-12-06T10:25:06.610Z,45.70
2018-12-06T10:27:44.580Z,46.20
2018-12-06T10:30:22.315Z,46.50
2018-12-06T10:33:02.097Z,47.10
2018-12-06T10:35:38.781Z,46.20
2018-12-06T10:38:16.541Z,46.80
2018-12-06T10:40:52.503Z,46.30
2018-12-06T10:43:30.305Z,45.70
2018-12-06T10:46:07.264Z,45.50
2018-12-06T10:48:49.189Z,45.80
2018-12-06T10:51:36.412Z,46.60
2018-12-06T10:54:17.164Z,46.90
2018-12-06T10:56:53.875Z,45.70
2018-12-06T10:59:39.293Z,47.40
2018-12-06T11:04:23.454Z,46.90
2018-12-06T11:07:02.582Z,45.70
2018-12-06T11:09:40.207Z,47.30
2018-12-06T11:12:17.015Z,46.90
2018-12-06T11:14:57.655Z,48.50
2018-12-06T11:20:19.410Z,46.90
2018-12-06T11:22:57.474Z,46.90
2018-12-06T11:31:03.440Z,45.90
2018-12-06T11:33:41.150Z,46.00
2018-12-06T11:36:18.740Z,46.10
2018-12-06T11:38:59.176Z,46.80
2018-12-06T11:41:43.246Z,47.30
2018-12-06T11:44:27.392Z,47.30
2018-12-06T11:47:09.445Z,46.70
2018-12-06T11:49:52.760Z,46.40
2018-12-06T11:52:31.233Z,46.90
2018-12-06T11:55:10.105Z,46.90
2018-12-06T11:57:53.193Z,47.60
2018-12-06T12:00:37.384Z,46.90
2018-12-06T12:03:19.262Z,46.40
2018-12-06T12:06:02.521Z,47.30
2018-12-06T12:08:44.713Z,48.10
2018-12-06T12:11:28.580Z,48.00
2018-12-06T12:14:16.876Z,47.30
2018-12-06T12:17:01.513Z,47.80
2018-12-06T12:19:45.749Z,47.20
2018-12-06T12:22:36.146Z,46.60
2018-12-06T12:25:26.044Z,46.90
2018-12-06T12:28:10.664Z,47.20
2018-12-06T12:30:52.989Z,46.90
2018-12-06T12:33:42.908Z,46.80
2018-12-06T12:36:19.882Z,46.30
2018-12-06T12:39:04.946Z,47.40
2018-12-06T12:41:53.874Z,46.70
2018-12-06T12:44:37.658Z,46.90
2018-12-06T12:47:18.445Z,47.60
2018-12-06T12:49:59.887Z,48.00
2018-12-06T12:52:41.843Z,48.10
2018-12-06T12:55:25.001Z,47.70
2018-12-06T12:58:14.728Z,48.20
2018-12-06T13:09:55.969Z,48.00
2018-12-06T13:12:49.073Z,48.20
2018-12-06T13:15:29.161Z,47.70
2018-12-06T13:24:29.037Z,47.90
2018-12-06T13:27:19.771Z,48.50
2018-12-06T13:36:01.881Z,48.50
2018-12-06T13:41:49.085Z,48.70
2018-12-06T13:44:33.149Z,49.30
2018-12-06T13:53:25.882Z,49.60
2018-12-06T13:56:18.068Z,49.90
2018-12-06T13:59:11.208Z,49.80
2018-12-06T14:14:21.749Z,49.40
2018-12-06T14:17:23.150Z,49.60
2018-12-06T14:23:56.316Z,49.20
2018-12-06T14:32:32.134Z,49.20
2018-12-06T14:35:24.116Z,49.40
2018-12-06T14:38:15.216Z,49.30
2018-12-06T14:41:04.665Z,49.30
2018-12-06T14:43:49.843Z,49.40
2018-12-06T14:46:32.526Z,49.60
2018-12-06T14:49:20.676Z,50.00
2018-12-06T14:52:32.018Z,50.10
2018-12-06T14:55:24.687Z,50.10
2018-12-06T15:01:07.371Z,50.10
2018-12-06T15:03:57.158Z,50.10
2018-12-06T15:06:50.276Z,50.20
2018-12-06T15:09:37.393Z,50.20
2018-12-06T15:12:27.441Z,50.40
2018-12-06T15:18:14.897Z,50.40
2018-12-06T15:21:12.344Z,50.60
2018-12-06T15:23:53.414Z,49.80
2018-12-06T15:26:42.851Z,49.30
2018-12-06T15:29:28.341Z,49.50
2018-12-06T15:32:15.196Z,49.70
2018-12-06T15:35:08.651Z,49.70
2018-12-06T15:37:52.608Z,49.60
2018-12-06T15:41:00.492Z,49.50
2018-12-06T15:43:51.647Z,49.70
2018-12-06T15:46:40.296Z,50.00
2018-12-06T15:49:22.716Z,49.60
2018-12-06T15:52:06.778Z,49.90
2018-12-06T15:54:47.674Z,49.50
2018-12-06T15:57:37.434Z,49.60
2018-12-06T16:00:24.987Z,49.80
2018-12-06T16:03:12.818Z,49.80
2018-12-06T16:06:02.853Z,49.60
2018-12-06T16:08:44.446Z,49.60
2018-12-06T16:11:28.696Z,50.00
2018-12-06T16:14:13.400Z,49.80
2018-12-06T16:16:58.699Z,50.10
2018-12-06T16:19:46.993Z,50.10
2018-12-06T16:22:33.645Z,50.10
2018-12-06T16:25:19.766Z,50.30
2018-12-06T16:27:58.242Z,50.50
2018-12-06T16:30:43.422Z,50.40
2018-12-06T16:33:27.369Z,50.70
2018-12-06T16:36:15.216Z,50.80
2018-12-06T16:38:54.054Z,50.70
2018-12-06T16:41:39.740Z,50.70
2018-12-06T16:44:22.660Z,50.70
2018-12-06T16:46:59.999Z,50.90
2018-12-06T16:49:37.322Z,51.00
2018-12-06T16:52:18.114Z,50.80
2018-12-06T16:55:03.032Z,50.90
2018-12-06T16:57:43.829Z,51.30
2018-12-06T17:00:27.029Z,51.60
2018-12-06T17:03:05.887Z,52.10
2018-12-06T17:05:45.871Z,52.10
2018-12-06T17:08:24.705Z,52.80
2018-12-06T17:11:06.697Z,53.00
2018-12-06T17:13:43.921Z,53.80
2018-12-06T17:16:22.851Z,54.10
2018-12-06T17:18:59.871Z,54.80
2018-12-06T17:21:40.303Z,54.50
2018-12-06T17:24:17.250Z,54.50
2018-12-06T17:26:59.908Z,54.80
2018-12-06T17:29:40.082Z,54.80
2018-12-06T17:32:17.684Z,54.60
2018-12-06T17:35:00.466Z,54.80
2018-12-06T17:37:40.477Z,55.40
2018-12-06T17:40:17.852Z,55.00
2018-12-06T17:42:55.440Z,55.00
2018-12-06T17:45:34.383Z,55.30
2018-12-06T17:48:14.393Z,55.10
2018-12-06T17:50:56.356Z,55.30
2018-12-06T17:53:40.451Z,55.60
2018-12-06T17:56:19.248Z,55.70
2018-12-06T17:58:59.480Z,55.50
2018-12-06T18:01:38.919Z,55.80
2018-12-06T18:04:17.462Z,56.80
2018-12-06T18:06:55.892Z,56.20
2018-12-06T18:09:36.728Z,56.60
2018-12-06T18:12:14.384Z,56.10
2018-12-06T18:14:51.984Z,56.10
2018-12-06T18:17:31.495Z,56.00
2018-12-06T18:20:12.729Z,56.40
2018-12-06T18:22:53.343Z,56.80
2018-12-06T18:25:32.137Z,57.20
2018-12-06T18:28:10.825Z,57.50
2018-12-06T18:30:49.196Z,57.00
2018-12-06T18:33:31.680Z,55.90
2018-12-06T18:36:12.616Z,56.50
2018-12-06T18:38:53.029Z,56.90
2018-12-06T18:41:30.675Z,57.30
2018-12-06T18:44:08.006Z,56.60
2018-12-06T18:46:46.664Z,56.40
2018-12-06T18:49:24.183Z,56.40
2018-12-06T18:52:02.166Z,55.60
2018-12-06T18:54:39.478Z,55.50
2018-12-06T18:57:17.929Z,55.50
2018-12-06T18:59:57.062Z,54.80
2018-12-06T19:02:33.773Z,54.70
2018-12-06T19:05:12.498Z,54.50
2018-12-06T19:07:51.736Z,54.30
2018-12-06T19:10:28.597Z,53.80
2018-12-06T19:13:07.565Z,54.00
2018-12-06T19:15:48.451Z,53.90
2018-12-06T19:18:25.870Z,53.70
2018-12-06T19:21:07.914Z,53.70
2018-12-06T19:23:46.532Z,53.10
2018-12-06T19:26:25.487Z,52.30
2018-12-06T19:29:03.244Z,51.50
2018-12-06T19:31:39.914Z,51.60
2018-12-06T19:34:19.137Z,51.40
2018-12-06T19:36:55.365Z,51.40
2018-12-06T19:39:37.663Z,51.50
2018-12-06T19:42:17.355Z,51.60
2018-12-06T19:44:58.484Z,51.30
2018-12-06T19:47:36.799Z,51.50
2018-12-06T19:50:17.326Z,51.20
2018-12-06T19:53:01.084Z,50.90
2018-12-06T19:55:45.174Z,50.60
2018-12-06T19:58:23.538Z,50.70
2018-12-06T20:01:02.026Z,50.50
2018-12-06T20:03:44.830Z,50.20
2018-12-06T20:06:21.848Z,50.40
2018-12-06T20:09:01.452Z,50.40
2018-12-06T20:11:38.384Z,50.30
2018-12-06T20:14:17.528Z,50.40
2018-12-06T20:16:55.223Z,50.50
2018-12-06T20:19:33.044Z,50.70
2018-12-06T20:22:10.746Z,50.30
2018-12-06T20:24:47.485Z,50.40
2018-12-06T20:27:24.407Z,50.60
2018-12-06T20:30:05.170Z,50.30
2018-12-06T20:32:44.496Z,50.50
2018-12-06T20:35:22.882Z,50.20
2018-12-06T20:37:59.894Z,50.20
2018-12-06T20:40:37.672Z,50.40
2018-12-06T20:43:19.364Z,50.20
2018-12-06T20:45:56.593Z,50.10
2018-12-06T20:48:33.060Z,50.30
2018-12-06T20:51:14.299Z,50.40
2018-12-06T20:53:54.677Z,50.50
2018-12-06T20:56:33.382Z,50.60
2018-12-06T20:59:09.864Z,50.40
2018-12-06T21:01:46.935Z,50.30
2018-12-06T21:04:24.789Z,50.70
2018-12-06T21:07:01.439Z,50.70
2018-12-06T21:09:39.753Z,51.00
2018-12-06T21:12:16.901Z,51.00
2018-12-06T21:14:53.899Z,51.10
2018-12-06T21:17:32.669Z,51.70
2018-12-06T21:20:09.869Z,51.30
2018-12-06T21:22:46.743Z,51.50
2018-12-06T21:25:24.591Z,51.60
2018-12-06T21:28:03.140Z,51.70
2018-12-06T21:30:40.570Z,51.80
2018-12-06T21:33:18.404Z,52.50
2018-12-06T21:35:57.596Z,52.00
2018-12-06T21:38:35.748Z,52.40
2018-12-06T21:41:13.138Z,52.40
2018-12-06T21:43:50.791Z,52.10
2018-12-06T21:46:29.767Z,51.90
2018-12-06T21:49:07.631Z,52.70
2018-12-06T21:51:46.469Z,52.20
2018-12-06T21:54:23.735Z,52.10
2018-12-06T21:57:04.195Z,52.20
2018-12-06T21:59:41.629Z,52.20
2018-12-06T22:02:26.262Z,52.30
2018-12-06T22:05:04.458Z,52.50
2018-12-06T22:07:41.848Z,52.70
2018-12-06T22:10:19.744Z,52.80
2018-12-06T22:12:59.129Z,52.70
2018-12-06T22:15:38.375Z,52.80
2018-12-06T22:18:15.925Z,53.30
2018-12-06T22:20:54.330Z,53.40
2018-12-06T22:23:32.456Z,53.70
2018-12-06T22:26:10.704Z,53.50
2018-12-06T22:28:51.675Z,53.50
2018-12-06T22:31:29.591Z,53.70
2018-12-06T22:34:07.609Z,54.00
2018-12-06T22:36:47.349Z,54.10
2018-12-06T22:39:25.399Z,53.80
2018-12-06T22:42:03.294Z,54.40
2018-12-06T22:44:41.835Z,54.60
2018-12-06T22:47:21.625Z,55.00
2018-12-06T22:50:02.392Z,55.00
2018-12-06T22:52:42.348Z,54.70
2018-12-06T22:55:20.503Z,54.60
2018-12-06T22:57:58.526Z,55.20
2018-12-06T23:00:38.058Z,55.10
2018-12-06T23:03:17.203Z,55.00
2018-12-06T23:05:56.171Z,55.40
2018-12-06T23:08:35.525Z,55.80
2018-12-06T23:11:13.796Z,55.60
2018-12-06T23:13:52.619Z,55.70
2018-12-06T23:16:35.802Z,56.10
2018-12-06T23:19:18.151Z,55.90
2018-12-06T23:21:56.262Z,57.50
2018-12-06T23:24:33.852Z,56.50
2018-12-06T23:27:12.082Z,57.70
2018-12-06T23:29:48.953Z,57.10
2018-12-06T23:32:28.479Z,56.30
2018-12-06T23:35:08.166Z,56.80
2018-12-06T23:37:45.378Z,56.60
2018-12-06T23:40:26.566Z,57.40
2018-12-06T23:43:06.284Z,57.10
2018-12-06T23:48:29.822Z,56.50
2018-12-06T23:51:42.655Z,56.80
2018-12-06T23:54:19.879Z,56.60
2018-12-06T23:56:57.259Z,56.90
2018-12-06T23:59:35.545Z,57.20
